Kirsehir, Turkey
Current Conditions -  °F | °C
As of 9:20 AM on Saturday 25 Oct 2014 (Local Time) from LTAZ Reporting Station
Broken Clouds Broken Clouds  
Wind Chill: 57°   Ceiling: 18000
Heat Index: 57°   Visibility: 6mi
Dew Point: 45°   Wind: 6mph
Humidity: 63%   Direction: 120°ESE
Pressure: 30.06"   Gusts: NA
Location:  39.15°N, 34.16°E
Report Text: LTAZ 250620Z 12005KT 090V150 9999 FEW040 SCT100 BKN180 14/07 Q1018
Loading
Personal Weather Stations






























Interactive Weather Map
Tropical Storm Tracking
New forecast layout! Learn more

10-Day Weather Forecast

Advertisements
Track Severe Weather on mobile